Time;durP1;ratioP1;P1;durP2;ratioP2;P2;SDS_P1;SDS_P2;PMS_P1;PMS_P2;Temp;Humidity;BMP_temperature;BMP_pressure;BME280_temperature;BME280_humidity;BME280_pressure;Samples;Min_cycle;Max_cycle;Signal;HPM_P1;HPM_P2
2021/05/11 00:01:36;;;;;;;6.75;3.72;;;;;;;14.19;71.28;98091.41;4993336;28;20056;-75
2021/05/11 00:04:02;;;;;;;7.90;4.15;;;;;;;14.22;70.93;98080.59;4989379;28;20034;-75
2021/05/11 00:06:28;;;;;;;9.57;4.22;;;;;;;14.37;71.91;98087.63;5000613;28;20021;-75
2021/05/11 00:08:53;;;;;;;8.15;4.07;;;;;;;14.48;72.23;98102.06;5006676;28;20029;-75
2021/05/11 00:11:19;;;;;;;8.55;3.90;;;;;;;14.50;71.64;98090.41;5018905;28;20083;-75
2021/05/11 00:13:45;;;;;;;8.07;4.03;;;;;;;14.34;71.84;98080.94;5001324;28;20022;-75
2021/05/11 00:16:11;;;;;;;7.55;3.50;;;;;;;14.53;71.42;98083.97;5022766;28;20041;-75
2021/05/11 00:18:36;;;;;;;11.45;3.90;;;;;;;14.53;71.97;98070.91;5018927;28;20043;-75
2021/05/11 00:21:03;;;;;;;13.02;4.30;;;;;;;14.46;72.60;98086.53;5019742;28;20040;-75
2021/05/11 00:23:28;;;;;;;7.82;3.78;;;;;;;14.48;72.75;98074.06;5020833;28;20025;-75
2021/05/11 00:25:54;;;;;;;7.15;4.10;;;;;;;14.65;72.73;98066.06;5041162;28;20030;-76
2021/05/11 00:28:20;;;;;;;7.65;4.22;;;;;;;14.46;73.52;98055.16;5021281;28;20045;-75
2021/05/11 00:30:45;;;;;;;9.10;4.25;;;;;;;14.11;73.76;98017.47;5013449;28;20184;-76
2021/05/11 00:33:12;;;;;;;9.10;4.25;;;;;;;14.43;74.52;98043.22;5025570;28;20164;-75
2021/05/11 00:35:38;;;;;;;9.10;4.22;;;;;;;14.39;74.62;98031.50;5039147;28;20056;-75
2021/05/11 00:38:04;;;;;;;8.50;4.32;;;;;;;14.46;73.76;98049.91;5014030;28;20026;-75
2021/05/11 00:40:29;;;;;;;8.63;3.97;;;;;;;14.23;73.29;98045.59;5019171;28;20033;-75
2021/05/11 00:42:56;;;;;;;12.32;3.97;;;;;;;14.17;74.75;98048.94;5003224;28;20116;-75
2021/05/11 00:45:21;;;;;;;8.45;4.40;;;;;;;14.23;74.69;98057.88;5036430;28;20131;-76
2021/05/11 00:47:47;;;;;;;9.38;4.45;;;;;;;14.25;74.95;98055.88;5021323;28;20045;-75
2021/05/11 00:50:13;;;;;;;6.47;4.15;;;;;;;14.35;74.57;98039.94;5017253;28;20062;-75
2021/05/11 00:52:39;;;;;;;6.70;4.03;;;;;;;14.33;74.10;98024.41;5020234;28;20065;-75
2021/05/11 00:55:05;;;;;;;6.60;4.07;;;;;;;14.37;73.53;98024.84;5026077;28;20116;-76
2021/05/11 00:57:32;;;;;;;7.18;4.40;;;;;;;14.21;74.42;98025.88;5005896;28;20100;-76
2021/05/11 00:59:59;;;;;;;11.27;3.92;;;;;;;14.34;74.33;98033.88;5009790;28;20030;-76
2021/05/11 01:02:24;;;;;;;8.60;3.97;;;;;;;14.48;74.65;98024.38;5003097;28;20081;-75
2021/05/11 01:04:50;;;;;;;7.28;4.07;;;;;;;14.49;73.91;98025.97;5027648;28;20134;-75
2021/05/11 01:07:15;;;;;;;7.30;3.97;;;;;;;14.46;73.41;98030.81;4995704;28;20025;-75
2021/05/11 01:09:41;;;;;;;8.25;3.90;;;;;;;14.40;74.51;98035.75;5006966;28;20505;-75
2021/05/11 01:12:07;;;;;;;6.70;3.97;;;;;;;14.34;73.52;98017.38;4990749;28;20106;-75
2021/05/11 01:14:32;;;;;;;8.43;3.78;;;;;;;14.43;74.26;98026.72;5009260;28;20037;-75
2021/05/11 01:17:00;;;;;;;6.53;4.00;;;;;;;14.20;74.58;98025.06;5005620;28;20848;-75
2021/05/11 01:24:52;;;;;;;8.82;4.30;;;;;;;14.33;74.63;98045.34;4995049;28;20068;-76
2021/05/11 01:52:24;;;;;;;7.63;4.40;;;;;;;14.20;75.33;97961.47;4988130;28;20037;-75
2021/05/11 02:24:43;;;;;;;8.02;4.32;;;;;;;14.18;76.59;97998.28;5017899;28;20040;-75
2021/05/11 02:27:09;;;;;;;7.63;3.83;;;;;;;13.92;75.37;98003.97;5000775;28;20017;-75
2021/05/11 02:29:34;;;;;;;7.75;4.50;;;;;;;14.06;76.44;98027.69;4985001;28;20030;-75
2021/05/11 02:32:00;;;;;;;6.45;3.72;;;;;;;14.00;73.33;97995.22;4999093;28;20029;-75
2021/05/11 02:34:25;;;;;;;11.02;5.05;;;;;;;13.86;77.76;98002.09;4992860;28;20021;-75
2021/05/11 02:36:51;;;;;;;7.57;4.25;;;;;;;13.59;77.92;98001.72;5002647;28;20048;-75
2021/05/11 02:39:16;;;;;;;9.50;4.47;;;;;;;13.49;77.05;98013.41;4999625;28;20120;-75
2021/05/11 02:41:43;;;;;;;8.68;3.90;;;;;;;13.44;74.82;98004.31;5001026;28;20433;-76
2021/05/11 02:44:09;;;;;;;7.13;3.95;;;;;;;13.46;75.67;98010.16;5016256;28;20552;-75
2021/05/11 02:46:34;;;;;;;6.60;3.38;;;;;;;13.63;73.19;97995.16;4997179;28;20091;-75
2021/05/11 02:49:01;;;;;;;7.03;3.53;;;;;;;13.92;72.67;97996.13;4985940;28;20056;-75
2021/05/11 02:51:27;;;;;;;6.13;3.28;;;;;;;13.80;72.66;97974.88;5000868;28;20505;-75
2021/05/11 02:53:52;;;;;;;6.55;3.38;;;;;;;13.95;70.54;97924.41;4990598;28;20025;-75
2021/05/11 02:56:18;;;;;;;9.85;3.22;;;;;;;14.00;71.07;97935.09;5004906;28;20082;-76
2021/05/11 02:58:47;;;;;;;6.57;3.20;;;;;;;14.10;70.49;97945.28;5001018;28;20047;-76
2021/05/11 03:01:13;;;;;;;;;;;;;;;14.04;70.16;97942.41;4995427;28;20379;-76
2021/05/11 03:03:38;;;;;;;7.63;3.20;;;;;;;14.43;66.81;97922.13;5000622;28;19920;-75
2021/05/11 03:06:04;;;;;;;7.68;3.22;;;;;;;14.38;69.51;97911.38;4999245;28;20739;-75
2021/05/11 03:08:29;;;;;;;6.13;2.80;;;;;;;14.30;71.92;97927.22;5002649;28;20017;-75
2021/05/11 03:10:54;;;;;;;6.47;3.13;;;;;;;14.23;69.23;97920.09;5017618;28;20666;-75
2021/05/11 03:13:20;;;;;;;6.55;2.97;;;;;;;14.26;70.61;97931.19;4998808;28;20040;-75
2021/05/11 03:15:45;;;;;;;6.90;3.83;;;;;;;13.89;72.42;97927.75;5000714;28;20028;-75
2021/05/11 03:18:11;;;;;;;8.63;3.53;;;;;;;13.99;71.14;97928.28;5005091;28;20044;-76
2021/05/11 03:20:36;;;;;;;6.47;3.38;;;;;;;13.91;71.77;97928.34;5015790;28;20061;-75
2021/05/11 03:23:02;;;;;;;9.68;3.80;;;;;;;13.80;71.66;97930.47;5003284;28;20025;-75
2021/05/11 03:25:27;;;;;;;8.77;4.22;;;;;;;13.81;72.21;97928.66;4994749;28;20014;-75
2021/05/11 03:27:53;;;;;;;7.47;3.50;;;;;;;13.90;69.68;97938.00;4997735;28;20741;-75
2021/05/11 03:30:18;;;;;;;6.05;3.35;;;;;;;14.06;70.54;97939.63;5005965;28;20048;-75
2021/05/11 03:32:44;;;;;;;8.90;4.60;;;;;;;13.73;72.77;97945.25;4996816;28;20032;-75
2021/05/11 03:35:10;;;;;;;7.90;3.85;;;;;;;13.69;72.07;97956.22;4981486;28;20033;-75
2021/05/11 03:37:35;;;;;;;7.03;3.90;;;;;;;13.55;71.34;97929.94;4998294;28;20171;-74
2021/05/11 03:40:01;;;;;;;7.20;4.25;;;;;;;13.63;72.47;97963.81;5000261;28;20040;-74
2021/05/11 03:42:34;;;;;;;6.93;3.90;;;;;;;13.69;72.27;97951.00;4984131;28;20025;-74
2021/05/11 03:45:02;;;;;;;8.07;3.63;;;;;;;13.79;71.49;97948.94;5003706;28;20563;-75
2021/05/11 03:47:29;;;;;;;7.25;4.28;;;;;;;13.64;73.04;97925.44;5020578;28;20056;-75
2021/05/11 03:49:55;;;;;;;7.15;4.43;;;;;;;13.64;73.60;97894.09;4986832;28;20044;-75
2021/05/11 03:52:20;;;;;;;9.18;4.85;;;;;;;13.48;75.18;97913.34;5020831;28;20033;-75
2021/05/11 03:54:45;;;;;;;9.93;5.88;;;;;;;13.33;76.50;97907.34;4987156;28;20113;-74
2021/05/11 03:57:12;;;;;;;8.32;4.32;;;;;;;13.11;75.94;97893.34;5005879;28;20025;-75
2021/05/11 03:59:38;;;;;;;8.52;4.43;;;;;;;13.45;76.81;97942.44;5000093;28;20049;-75
2021/05/11 04:02:04;;;;;;;8.80;5.00;;;;;;;13.34;78.00;97942.88;5017153;28;20068;-75
2021/05/11 04:04:30;;;;;;;8.52;4.20;;;;;;;13.50;75.76;97958.38;4998365;28;20032;-75
2021/05/11 04:06:56;;;;;;;7.60;4.10;;;;;;;13.54;74.57;97956.22;4994949;28;20033;-75
2021/05/11 04:09:30;;;;;;;8.52;4.63;;;;;;;13.24;76.54;97956.97;5002316;28;20025;-75
2021/05/11 04:12:10;;;;;;;8.05;4.57;;;;;;;13.20;76.31;97975.78;5014593;28;20474;-75
2021/05/11 04:17:26;;;;;;;8.02;4.43;;;;;;;13.30;74.78;97985.97;5030117;28;20072;-75
2021/05/11 04:19:53;;;;;;;10.10;5.65;;;;;;;12.88;75.67;97959.41;5033771;28;20032;-76
2021/05/11 04:22:19;;;;;;;8.27;5.53;;;;;;;12.57;75.44;97908.13;5016777;28;20596;-75
2021/05/11 04:24:48;;;;;;;8.80;5.70;;;;;;;13.03;74.81;97972.50;5030695;28;20587;-75
2021/05/11 04:27:15;;;;;;;8.82;5.72;;;;;;;12.81;76.27;97969.75;4997614;28;20083;-75
2021/05/11 04:29:41;;;;;;;8.30;4.80;;;;;;;12.60;75.12;97918.22;5008633;28;20059;-75
2021/05/11 04:32:06;;;;;;;8.07;4.80;;;;;;;13.01;75.14;97966.63;5012654;28;20060;-75
2021/05/11 04:34:32;;;;;;;8.68;4.93;;;;;;;12.97;75.81;97967.97;5008775;28;20014;-75
2021/05/11 04:36:57;;;;;;;9.77;6.07;;;;;;;12.79;77.81;97978.72;5010043;28;20037;-74
2021/05/11 04:39:23;;;;;;;9.40;5.88;;;;;;;13.08;76.54;97997.06;5007877;28;20102;-71
2021/05/11 04:41:48;;;;;;;10.07;6.07;;;;;;;12.88;77.57;97982.88;5002263;28;20037;-73
2021/05/11 04:44:15;;;;;;;8.13;4.75;;;;;;;12.96;75.70;97975.00;4986497;28;20037;-73
2021/05/11 04:49:09;;;;;;;11.02;6.88;;;;;;;12.65;77.94;97960.22;5016792;28;20048;-73
2021/05/11 04:51:34;;;;;;;9.70;6.00;;;;;;;12.62;76.74;97986.66;4996020;28;20722;-73
2021/05/11 04:54:00;;;;;;;9.45;6.30;;;;;;;12.65;78.67;97972.47;5002457;28;20060;-75
2021/05/11 04:56:26;;;;;;;9.82;6.00;;;;;;;12.67;78.70;97979.13;5009989;28;20064;-74
2021/05/11 04:58:51;;;;;;;8.57;5.75;;;;;;;12.84;77.67;97971.19;4997794;28;20057;-74
2021/05/11 05:01:17;;;;;;;10.02;4.70;;;;;;;12.93;76.37;97956.28;4991586;28;20064;-75
2021/05/11 05:03:46;;;;;;;8.15;4.57;;;;;;;13.29;74.64;97987.78;5007007;28;20280;-75
2021/05/11 05:06:11;;;;;;;7.70;4.18;;;;;;;13.43;75.88;97983.59;5013144;28;20037;-75
2021/05/11 05:08:37;;;;;;;7.80;5.03;;;;;;;13.24;76.48;97970.03;4999114;28;20033;-74
2021/05/11 05:11:02;;;;;;;7.43;4.68;;;;;;;13.13;77.28;97970.47;5001099;28;20140;-73
2021/05/11 05:13:28;;;;;;;8.07;4.93;;;;;;;13.11;77.82;97953.38;5002315;28;20029;-75
2021/05/11 05:15:58;;;;;;;6.03;2.65;;;;;;;13.29;75.07;97922.50;5002163;28;20022;-72
2021/05/11 05:18:27;;;;;;;7.30;3.95;;;;;;;13.35;76.62;97936.69;4993746;28;20032;-75
2021/05/11 05:20:53;;;;;;;7.78;3.55;;;;;;;13.36;76.68;97936.50;5012075;28;20124;-75
2021/05/11 05:23:21;;;;;;;6.82;4.10;;;;;;;13.34;77.08;97933.25;4996107;28;20127;-75
2021/05/11 05:25:51;;;;;;;6.07;3.50;;;;;;;13.36;77.53;97918.22;4988162;28;20033;-75
2021/05/11 05:28:17;;;;;;;8.65;4.45;;;;;;;13.43;79.04;97940.03;4979897;28;20164;-75
2021/05/11 05:30:42;;;;;;;7.20;3.40;;;;;;;13.23;77.63;97942.31;4999750;28;20483;-75
2021/05/11 05:33:08;;;;;;;6.45;3.38;;;;;;;13.38;78.06;97954.59;4997285;28;20072;-75
2021/05/11 05:35:33;;;;;;;9.05;3.90;;;;;;;13.37;77.88;97948.56;5018019;28;20695;-74
2021/05/11 05:37:59;;;;;;;9.98;3.63;;;;;;;13.26;78.28;97952.38;4995703;28;20537;-75
2021/05/11 05:40:25;;;;;;;7.75;3.90;;;;;;;13.08;79.05;97944.06;5002697;28;20060;-75
2021/05/11 05:42:51;;;;;;;7.90;4.20;;;;;;;13.03;79.29;97944.63;4997831;28;20108;-74
2021/05/11 05:45:17;;;;;;;7.90;4.47;;;;;;;12.93;79.91;97964.09;4997561;28;20112;-73
2021/05/11 05:47:52;;;;;;;6.60;3.28;;;;;;;12.92;79.67;97967.69;5018507;28;20079;-73
2021/05/11 05:50:19;;;;;;;6.00;2.88;;;;;;;13.10;79.26;97970.00;4989876;28;20053;-73
2021/05/11 05:52:45;;;;;;;7.97;3.20;;;;;;;13.26;78.27;97975.06;5002085;28;20025;-73
2021/05/11 05:55:12;;;;;;;6.88;2.30;;;;;;;13.35;76.18;97957.56;4997337;28;20056;-73
2021/05/11 05:57:37;;;;;;;8.52;2.08;;;;;;;13.52;75.83;97953.78;4998435;28;20095;-74
2021/05/11 06:00:03;;;;;;;4.93;1.77;;;;;;;13.59;74.69;97922.53;4997337;28;20789;-73
2021/05/11 06:02:29;;;;;;;6.28;2.28;;;;;;;13.54;76.25;97932.72;4981188;28;20116;-73
2021/05/11 06:04:55;;;;;;;6.53;2.10;;;;;;;13.47;77.62;97943.09;5021669;28;20647;-74
2021/05/11 06:07:20;;;;;;;5.82;2.50;;;;;;;13.55;77.51;97948.22;5002689;28;20079;-74
2021/05/11 06:09:47;;;;;;;4.47;2.10;;;;;;;13.41;78.10;97956.84;4996145;28;20033;-73
2021/05/11 06:12:21;;;;;;;4.15;2.20;;;;;;;13.37;78.27;97939.91;5005632;28;20024;-74
2021/05/11 06:17:38;;;;;;;5.82;2.60;;;;;;;13.23;78.95;97941.47;4963796;28;20120;-73
2021/05/11 06:20:04;;;;;;;5.22;2.70;;;;;;;13.21;78.88;97948.69;4998249;28;20099;-73
2021/05/11 06:22:30;;;;;;;5.78;2.60;;;;;;;13.27;79.78;97948.78;5015259;28;20040;-73
2021/05/11 06:24:55;;;;;;;5.07;2.03;;;;;;;13.35;78.09;97936.69;5012704;28;20022;-72
2021/05/11 06:27:21;;;;;;;5.03;2.38;;;;;;;13.39;78.47;97943.97;4998113;28;20679;-72
2021/05/11 06:29:48;;;;;;;6.95;2.30;;;;;;;13.45;76.92;97953.72;4997689;28;20536;-74
2021/05/11 06:32:14;;;;;;;5.57;1.85;;;;;;;13.57;76.78;97946.22;4994567;28;20021;-74
2021/05/11 06:34:52;;;;;;;5.07;1.90;;;;;;;13.69;74.68;97936.16;5014566;28;20037;-74
2021/05/11 06:37:18;;;;;;;6.07;1.90;;;;;;;13.81;76.10;97932.06;5008391;28;20025;-72
2021/05/11 06:39:46;;;;;;;4.32;1.70;;;;;;;13.77;75.46;97917.75;4995682;28;20072;-73
2021/05/11 06:42:12;;;;;;;4.57;1.60;;;;;;;13.79;74.84;97921.00;4996582;28;20029;-72
2021/05/11 06:47:32;;;;;;;4.68;2.03;;;;;;;13.57;77.07;97935.78;5001998;28;20129;-73
2021/05/11 06:55:04;;;;;;;4.22;1.90;;;;;;;13.82;75.89;97928.47;5007003;28;20233;-74
2021/05/11 06:57:30;;;;;;;4.68;1.75;;;;;;;13.87;75.01;97932.34;4994596;28;20609;-73
2021/05/11 06:59:55;;;;;;;6.05;1.65;;;;;;;13.65;75.89;97904.34;5012232;28;20088;-73
2021/05/11 07:02:21;;;;;;;6.18;1.60;;;;;;;13.81;75.29;97920.81;5005929;28;20022;-73
2021/05/11 07:04:48;;;;;;;3.65;1.25;;;;;;;13.96;74.14;97920.78;4992575;28;20033;-73
2021/05/11 07:07:15;;;;;;;3.45;1.10;;;;;;;13.92;74.04;97901.25;4992758;28;20112;-73
2021/05/11 07:14:58;;;;;;;3.90;1.40;;;;;;;13.68;76.66;97923.28;4996961;28;20041;-74
2021/05/11 07:17:24;;;;;;;4.35;1.80;;;;;;;13.55;78.23;97935.16;4996552;28;20489;-72
2021/05/11 07:19:49;;;;;;;4.20;1.63;;;;;;;13.45;79.06;97913.72;4988818;28;20056;-72
2021/05/11 07:22:14;;;;;;;3.92;1.30;;;;;;;13.59;76.20;97928.56;4993740;28;20036;-73
2021/05/11 07:24:40;;;;;;;4.22;1.67;;;;;;;13.46;77.72;97942.25;5018683;28;20044;-74
2021/05/11 07:32:00;;;;;;;4.57;1.95;;;;;;;13.26;79.24;97955.00;4999557;28;20033;-73
2021/05/11 07:34:27;;;;;;;6.32;2.10;;;;;;;13.31;79.45;97951.09;4978995;28;20029;-73
2021/05/11 07:36:52;;;;;;;4.93;2.30;;;;;;;13.17;80.15;97948.22;5019243;28;20439;-74
2021/05/11 07:39:19;;;;;;;4.93;2.17;;;;;;;12.94;81.04;97908.31;4960866;28;1024561;-73
2021/05/11 07:41:45;;;;;;;5.78;2.70;;;;;;;13.13;80.93;97936.53;5020712;28;20171;-73
2021/05/11 07:44:12;;;;;;;3.70;1.80;;;;;;;13.19;79.23;97927.97;5015565;28;20041;-74
2021/05/11 07:46:51;;;;;;;5.25;2.20;;;;;;;13.23;80.03;97939.72;5017955;28;20127;-74
2021/05/11 08:03:15;;;;;;;5.45;2.22;;;;;;;13.33;77.60;97895.09;5020543;28;20729;-73
2021/05/11 08:05:55;;;;;;;5.40;2.50;;;;;;;13.13;79.66;97907.81;4997075;28;20042;-73
2021/05/11 08:16:33;;;;;;;5.60;1.92;;;;;;;13.01;79.88;97922.28;5001309;28;20040;-73
2021/05/11 08:19:27;;;;;;;4.55;2.10;;;;;;;12.97;80.19;97927.03;5020462;28;20025;-73
2021/05/11 08:22:16;;;;;;;4.95;2.30;;;;;;;12.89;80.51;97914.06;5016219;28;20026;-73
2021/05/11 08:27:33;;;;;;;6.88;2.60;;;;;;;12.92;80.85;97905.06;5016991;28;20043;-72
2021/05/11 08:29:58;;;;;;;5.68;2.47;;;;;;;12.90;81.30;97907.84;5016278;28;20060;-72
2021/05/11 08:32:24;;;;;;;5.45;2.38;;;;;;;12.88;81.68;97913.25;5019691;28;20021;-73
2021/05/11 08:34:49;;;;;;;7.38;2.88;;;;;;;12.81;82.45;97901.09;5011977;28;20689;-73
2021/05/11 08:37:18;;;;;;;7.15;3.25;;;;;;;12.76;82.89;97911.22;5015768;28;20561;-73
2021/05/11 08:39:47;;;;;;;6.68;2.75;;;;;;;12.74;82.89;97890.56;4999076;28;20038;-73
2021/05/11 08:42:13;;;;;;;6.03;2.65;;;;;;;12.74;83.56;97881.91;4996643;28;20551;-73
2021/05/11 08:44:39;;;;;;;7.07;3.10;;;;;;;12.73;83.48;97888.13;5000302;28;20038;-73
2021/05/11 08:47:05;;;;;;;5.53;2.70;;;;;;;12.72;83.98;97850.78;5001615;28;20038;-73
2021/05/11 08:49:30;;;;;;;5.45;2.42;;;;;;;12.80;83.10;97858.53;4996471;28;20044;-73
2021/05/11 08:52:02;;;;;;;5.70;2.40;;;;;;;12.85;82.82;97863.22;5000559;28;20033;-73
2021/05/11 09:32:59;;;;;;;5.22;1.90;;;;;;;13.16;81.28;97865.72;4949714;28;20855;-73
2021/05/11 09:55:31;;;;;;;6.60;3.70;;;;;;;13.00;83.86;97886.75;4999973;28;20048;-72
2021/05/11 09:58:05;;;;;;;5.55;3.53;;;;;;;13.02;83.44;97884.75;5001948;28;20082;-73
2021/05/11 10:01:17;;;;;;;5.90;3.65;;;;;;;13.05;83.01;97902.66;5015845;28;20029;-74
2021/05/11 10:48:46;;;;;;;5.05;2.70;;;;;;;12.92;82.25;97878.97;5017066;28;20033;-73
2021/05/11 10:51:16;;;;;;;4.93;2.38;;;;;;;12.91;81.91;97895.63;5007680;28;20049;-74
2021/05/11 10:54:21;;;;;;;5.60;2.95;;;;;;;12.85;81.25;97886.69;4988592;28;20099;-75
2021/05/11 10:56:45;;;;;;;3.90;1.17;;;;;;;13.09;77.41;97890.91;5011583;28;20710;-74
2021/05/11 11:01:42;;;;;;;5.65;2.90;;;;;;;12.82;82.82;97887.06;5010332;28;20037;-74
2021/05/11 11:04:16;;;;;;;5.68;2.47;;;;;;;12.74;81.98;97876.69;4997247;28;20392;-75
2021/05/11 11:06:57;;;;;;;6.45;2.75;;;;;;;12.71;83.03;97903.16;4996366;28;20083;-73
2021/05/11 11:09:23;;;;;;;5.38;1.80;;;;;;;12.78;80.04;97909.28;5015672;28;20094;-73
2021/05/11 11:11:48;;;;;;;4.15;1.52;;;;;;;12.89;78.83;97894.00;4998106;28;20033;-74
2021/05/11 11:14:15;;;;;;;5.45;1.75;;;;;;;12.89;79.87;97895.81;4995278;28;20075;-73
2021/05/11 11:16:40;;;;;;;4.57;1.90;;;;;;;12.76;81.89;97887.75;4991336;28;20044;-74
2021/05/11 11:19:13;;;;;;;3.70;1.48;;;;;;;12.77;80.33;97882.38;4994777;28;20034;-74
2021/05/11 11:22:03;;;;;;;4.43;1.83;;;;;;;12.79;80.74;97898.66;4995295;28;20045;-74
2021/05/11 11:24:37;;;;;;;6.30;1.85;;;;;;;12.76;82.14;97888.59;4979766;28;20040;-73
2021/05/11 11:27:03;;;;;;;5.30;1.88;;;;;;;12.80;81.35;97879.41;4996751;28;20030;-73
2021/05/11 11:29:28;;;;;;;6.15;2.00;;;;;;;12.67;82.15;97864.38;4994357;28;20036;-73
2021/05/11 11:31:55;;;;;;;5.35;2.05;;;;;;;12.72;82.38;97884.69;4995426;28;20087;-74
2021/05/11 11:34:25;;;;;;;4.63;1.73;;;;;;;12.68;82.06;97873.78;4995430;28;20045;-74
2021/05/11 11:36:59;;;;;;;4.68;2.00;;;;;;;12.73;81.79;97885.50;5007507;28;20034;-74
2021/05/11 11:39:29;;;;;;;4.93;1.98;;;;;;;12.71;82.70;97880.47;4997116;28;20033;-74
2021/05/11 11:41:58;;;;;;;4.00;1.90;;;;;;;12.71;82.72;97892.72;4995624;28;20072;-74
2021/05/11 11:44:26;;;;;;;4.68;1.75;;;;;;;12.66;81.46;97861.94;4996491;28;20021;-74
2021/05/11 11:46:57;;;;;;;4.95;1.90;;;;;;;12.80;81.56;97889.03;4995131;28;20033;-74
2021/05/11 11:49:28;;;;;;;4.68;1.75;;;;;;;12.79;80.93;97869.16;4996237;28;20047;-74
2021/05/11 11:52:02;;;;;;;6.60;2.47;;;;;;;12.82;82.02;97868.81;5006306;28;20553;-74
2021/05/11 11:57:46;;;;;;;3.85;1.52;;;;;;;12.86;81.18;97859.63;4986123;28;20128;-74
2021/05/11 12:00:17;;;;;;;6.55;1.90;;;;;;;12.96;81.61;97872.41;4995867;28;20039;-74
2021/05/11 12:03:01;;;;;;;4.28;1.67;;;;;;;12.91;81.07;97859.13;5011482;28;20053;-74
2021/05/11 12:05:29;;;;;;;5.50;1.75;;;;;;;12.94;81.94;97879.59;5014288;28;20022;-74
2021/05/11 12:10:22;;;;;;;4.95;1.60;;;;;;;12.88;82.19;97878.53;5000018;28;20407;-74
2021/05/11 12:12:47;;;;;;;3.92;1.45;;;;;;;12.77;81.89;97858.09;4981336;28;20055;-74
2021/05/11 12:15:19;;;;;;;4.18;1.60;;;;;;;12.81;83.21;97867.16;4999568;28;20087;-74
2021/05/11 12:17:46;;;;;;;4.32;1.80;;;;;;;12.88;83.21;97868.88;4998047;28;20029;-74
2021/05/11 12:20:25;;;;;;;5.10;2.05;;;;;;;12.89;82.93;97857.47;5016946;28;20868;-73
2021/05/11 12:23:05;;;;;;;5.38;2.10;;;;;;;12.88;83.11;97855.84;5014582;28;20475;-74
2021/05/11 12:25:30;;;;;;;;;;;;;;;12.94;81.96;97851.75;4999586;28;20120;-74
2021/05/11 12:27:57;;;;;;;3.00;1.05;;;;;;;12.88;81.15;97827.16;4998684;28;19975;-73
2021/05/11 12:30:36;;;;;;;4.18;1.30;;;;;;;13.08;80.91;97837.88;5015207;28;20087;-74
2021/05/11 12:33:06;;;;;;;3.40;1.02;;;;;;;12.97;81.54;97819.25;4999281;28;20029;-75
2021/05/11 12:35:32;;;;;;;3.55;1.30;;;;;;;13.06;82.29;97849.50;5014740;28;20036;-75
2021/05/11 12:38:02;;;;;;;4.07;1.20;;;;;;;13.00;82.03;97843.19;5017409;28;20045;-75
2021/05/11 12:40:57;;;;;;;4.95;1.30;;;;;;;12.97;82.41;97847.94;5004141;28;20072;-75
2021/05/11 12:43:49;;;;;;;3.60;1.30;;;;;;;13.01;81.83;97834.34;5015199;28;20029;-75
2021/05/11 12:46:14;;;;;;;3.85;1.38;;;;;;;13.08;82.56;97855.34;4998600;28;20147;-74
2021/05/11 12:48:59;;;;;;;6.80;1.83;;;;;;;12.93;83.98;97844.09;5018400;28;20033;-75
2021/05/11 12:51:46;;;;;;;4.30;1.48;;;;;;;13.03;82.21;97850.66;5007284;28;20657;-75
2021/05/11 12:54:33;;;;;;;4.20;1.50;;;;;;;13.09;81.57;97862.19;5003510;28;20637;-74
2021/05/11 12:59:41;;;;;;;3.92;1.63;;;;;;;13.02;83.36;97867.31;5000173;28;20047;-74
2021/05/11 13:25:59;;;;;;;5.90;2.92;;;;;;;12.89;84.27;97880.97;5002293;28;20247;-74
2021/05/11 13:28:45;;;;;;;5.55;3.13;;;;;;;12.87;85.02;97900.41;4996246;28;20496;-74
2021/05/11 13:31:28;;;;;;;6.72;2.78;;;;;;;12.87;82.93;97882.94;4993341;28;20076;-74
2021/05/11 13:36:22;;;;;;;4.32;1.85;;;;;;;12.97;81.82;97892.31;4992186;28;20055;-74
2021/05/11 13:38:47;;;;;;;5.28;2.40;;;;;;;12.98;82.49;97889.53;4992339;28;20661;-74
2021/05/11 13:41:13;;;;;;;4.82;2.20;;;;;;;12.97;82.39;97881.88;4992074;28;20307;-74
2021/05/11 13:43:38;;;;;;;4.93;2.10;;;;;;;12.96;81.30;97854.97;4997657;28;20044;-73
2021/05/11 13:46:04;;;;;;;3.28;1.30;;;;;;;13.16;77.94;97857.88;4997068;28;20068;-74
2021/05/11 13:51:03;;;;;;;3.78;1.15;;;;;;;13.50;74.48;97819.16;4991833;28;20064;-74
2021/05/11 13:53:33;;;;;;;3.50;0.95;;;;;;;13.40;74.50;97815.03;5013404;28;20598;-73
2021/05/11 14:03:56;;;;;;;3.80;1.48;;;;;;;13.31;77.33;97828.38;5000379;28;20048;-74
2021/05/11 14:06:22;;;;;;;4.35;1.60;;;;;;;13.22;78.88;97830.25;4997692;28;20064;-74
2021/05/11 14:08:48;;;;;;;6.47;1.98;;;;;;;13.10;80.52;97822.03;5017180;28;20561;-73
2021/05/11 14:11:13;;;;;;;6.32;1.85;;;;;;;13.04;80.83;97802.69;5011785;28;20061;-74
2021/05/11 14:13:39;;;;;;;4.93;1.90;;;;;;;13.08;79.96;97819.59;4998914;28;20108;-74
2021/05/11 14:16:04;;;;;;;4.80;1.40;;;;;;;13.05;79.39;97806.94;4996721;28;20099;-73
2021/05/11 14:18:30;;;;;;;6.53;2.33;;;;;;;13.14;81.71;97805.03;4997920;28;20066;-72
2021/05/11 14:20:55;;;;;;;3.05;1.20;;;;;;;13.08;79.78;97816.19;5015246;28;20041;-74
2021/05/11 14:23:22;;;;;;;4.90;1.50;;;;;;;13.13;79.96;97815.66;4996314;28;20053;-73
2021/05/11 14:25:47;;;;;;;4.50;1.55;;;;;;;13.12;80.26;97814.84;4997384;28;20033;-73
2021/05/11 14:28:13;;;;;;;4.75;1.40;;;;;;;13.21;80.33;97811.13;4996319;28;20087;-74
2021/05/11 14:30:38;;;;;;;3.63;1.38;;;;;;;13.42;80.28;97815.66;4997615;28;20033;-73
2021/05/11 14:33:04;;;;;;;4.20;1.40;;;;;;;13.37;78.15;97814.59;5006275;28;20672;-72
2021/05/11 14:35:30;;;;;;;4.38;1.38;;;;;;;13.44;78.80;97815.47;4996572;28;20041;-72
2021/05/11 14:37:56;;;;;;;5.65;1.30;;;;;;;13.50;80.42;97809.53;5012990;28;20048;-74
2021/05/11 14:40:22;;;;;;;5.13;1.45;;;;;;;13.36;81.14;97800.72;4995439;28;20025;-75
2021/05/11 14:42:47;;;;;;;4.10;1.30;;;;;;;13.38;81.76;97805.75;5016943;28;20521;-74
2021/05/11 14:45:13;;;;;;;5.32;1.30;;;;;;;13.41;81.58;97821.88;5013641;28;20013;-74
2021/05/11 14:47:45;;;;;;;3.97;1.30;;;;;;;13.36;81.91;97818.19;4982626;28;20039;-74
2021/05/11 14:50:15;;;;;;;5.53;1.30;;;;;;;13.40;82.14;97803.78;4998771;28;20048;-74
2021/05/11 14:52:41;;;;;;;4.13;1.35;;;;;;;13.41;82.41;97824.47;4993469;28;20033;-73
2021/05/11 14:55:07;;;;;;;4.82;1.52;;;;;;;13.35;82.96;97819.19;4991173;28;20036;-74
2021/05/11 14:57:33;;;;;;;4.57;1.55;;;;;;;13.38;83.32;97824.03;4994745;28;20037;-74
2021/05/11 14:59:58;;;;;;;3.50;1.08;;;;;;;13.42;82.36;97813.06;5001878;28;20875;-74
2021/05/11 15:02:24;;;;;;;5.00;1.40;;;;;;;13.39;81.92;97815.22;5006291;28;20025;-74
2021/05/11 15:04:49;;;;;;;4.55;1.30;;;;;;;13.44;80.92;97818.91;5012238;28;20068;-74
2021/05/11 15:07:15;;;;;;;3.20;1.10;;;;;;;13.57;80.79;97815.63;5011939;28;20027;-74
2021/05/11 15:09:41;;;;;;;5.45;1.65;;;;;;;13.36;80.95;97800.72;4999209;28;20025;-74
2021/05/11 15:12:07;;;;;;;4.63;1.58;;;;;;;13.34;82.05;97812.34;4996813;28;20041;-74
2021/05/11 15:14:32;;;;;;;4.93;1.55;;;;;;;13.39;82.16;97829.06;4978740;28;20029;-74
2021/05/11 15:17:09;;;;;;;3.63;1.40;;;;;;;13.22;82.50;97833.66;5011531;28;20824;-74
2021/05/11 15:19:36;;;;;;;7.03;2.60;;;;;;;13.19;82.98;97826.16;5014028;28;20029;-74
2021/05/11 15:22:01;;;;;;;5.13;2.10;;;;;;;13.27;83.90;97852.19;4998687;28;20037;-74
2021/05/11 15:24:27;;;;;;;4.28;1.63;;;;;;;13.04;84.93;97847.06;4995381;28;20056;-74
2021/05/11 15:26:52;;;;;;;5.68;1.95;;;;;;;12.98;85.43;97839.94;4999337;28;20032;-74
2021/05/11 15:29:18;;;;;;;5.03;1.88;;;;;;;13.01;85.49;97838.78;4982221;28;20582;-74
2021/05/11 15:31:45;;;;;;;5.57;1.85;;;;;;;12.96;84.98;97820.22;4982718;28;20034;-74
2021/05/11 15:34:10;;;;;;;4.93;1.75;;;;;;;13.16;84.97;97836.16;4996661;28;20014;-74
2021/05/11 15:36:36;;;;;;;5.80;2.00;;;;;;;13.40;84.47;97838.53;4981502;28;20067;-73
2021/05/11 15:39:02;;;;;;;5.70;2.25;;;;;;;13.35;84.56;97825.22;5015200;28;20037;-74
2021/05/11 15:41:27;;;;;;;6.88;2.17;;;;;;;13.57;84.58;97839.13;4993461;28;20017;-74
2021/05/11 15:43:52;;;;;;;5.30;2.13;;;;;;;13.50;84.81;97840.06;4999278;28;20694;-75
2021/05/11 15:46:18;;;;;;;6.07;2.17;;;;;;;13.50;84.56;97827.00;5014527;28;20101;-75
2021/05/11 15:48:43;;;;;;;6.80;2.40;;;;;;;13.67;84.15;97848.50;5020133;28;20049;-75
2021/05/11 15:51:09;;;;;;;6.65;2.63;;;;;;;13.56;83.39;97837.53;4998525;28;20048;-74
2021/05/11 15:53:34;;;;;;;5.18;1.90;;;;;;;13.57;82.13;97840.94;4991540;28;20386;-74
2021/05/11 15:56:00;;;;;;;5.72;1.90;;;;;;;13.54;82.51;97838.69;4984456;28;20493;-74
2021/05/11 15:58:25;;;;;;;5.15;1.90;;;;;;;13.60;82.20;97838.78;4986222;28;20028;-74
2021/05/11 16:00:51;;;;;;;5.40;2.30;;;;;;;13.75;82.09;97830.13;5006658;28;20691;-74